Time;durP1;ratioP1;P1;durP2;ratioP2;P2;SDS_P1;SDS_P2;PMS_P1;PMS_P2;Temp;Humidity;BMP_temperature;BMP_pressure;BME280_temperature;BME280_humidity;BME280_pressure;Samples;Min_cycle;Max_cycle;Signal;HPM_P1;HPM_P2
2023/03/29 00:00:22;;;;;;;1.65;1.33;;;;;;;;;;5037770;28;20184;-62
2023/03/29 00:02:47;;;;;;;1.98;1.40;;;;;;;;;;5046024;28;20199;-61
2023/03/29 00:05:14;;;;;;;2.13;1.60;;;;;;;;;;5039329;28;20262;-62
2023/03/29 00:07:41;;;;;;;2.20;1.58;;;;;;;;;;5055991;28;20181;-62
2023/03/29 00:10:08;;;;;;;3.63;1.52;;;;;;;;;;5047512;28;20202;-62
2023/03/29 00:12:35;;;;;;;2.55;1.38;;;;;;;;;;5045930;28;20176;-62
2023/03/29 00:15:01;;;;;;;2.60;1.60;;;;;;;;;;5031520;28;20193;-62
2023/03/29 00:17:27;;;;;;;3.25;1.48;;;;;;;;;;5044575;28;20184;-62
2023/03/29 00:19:53;;;;;;;2.15;1.52;;;;;;;;;;5046188;28;20195;-62
2023/03/29 00:22:20;;;;;;;2.00;1.23;;;;;;;;;;5036360;28;20266;-62
2023/03/29 00:24:47;;;;;;;1.90;1.40;;;;;;;;;;5030363;28;20689;-62
2023/03/29 00:27:13;;;;;;;1.95;1.38;;;;;;;;;;5049004;28;20338;-62
2023/03/29 00:29:39;;;;;;;1.70;1.40;;;;;;;;;;5043928;28;20253;-62
2023/03/29 00:32:06;;;;;;;2.08;1.63;;;;;;;;;;5050289;28;20187;-62
2023/03/29 00:34:34;;;;;;;3.22;1.40;;;;;;;;;;5039045;28;20566;-63
2023/03/29 00:37:00;;;;;;;1.67;1.20;;;;;;;;;;5032200;28;20191;-62
2023/03/29 00:39:27;;;;;;;1.20;1.10;;;;;;;;;;5036159;28;20179;-62
2023/03/29 00:41:53;;;;;;;1.77;1.15;;;;;;;;;;5053990;28;20175;-62
2023/03/29 00:44:38;;;;;;;2.47;1.60;;;;;;;;;;5037122;28;20633;-62
2023/03/29 00:47:04;;;;;;;2.83;1.50;;;;;;;;;;5028442;28;20194;-62
2023/03/29 00:49:30;;;;;;;1.25;1.15;;;;;;;;;;5038569;28;20218;-62
2023/03/29 00:51:56;;;;;;;1.20;1.00;;;;;;;;;;5043490;28;20183;-62
2023/03/29 00:54:22;;;;;;;1.67;1.42;;;;;;;;;;5035434;28;20207;-62
2023/03/29 00:56:49;;;;;;;1.75;1.30;;;;;;;;;;5042989;28;20197;-62
2023/03/29 00:59:18;;;;;;;1.13;1.02;;;;;;;;;;5038869;28;20183;-63
2023/03/29 01:02:07;;;;;;;3.92;1.30;;;;;;;;;;5055349;28;20179;-62
2023/03/29 01:04:41;;;;;;;2.13;1.15;;;;;;;;;;5030832;28;20293;-62
2023/03/29 01:07:20;;;;;;;2.00;1.38;;;;;;;;;;5039120;28;20883;-62
2023/03/29 01:09:48;;;;;;;1.40;1.17;;;;;;;;;;5034638;28;20205;-62
2023/03/29 01:12:20;;;;;;;1.73;1.17;;;;;;;;;;5042029;28;20798;-62
2023/03/29 01:14:51;;;;;;;1.95;1.20;;;;;;;;;;5028168;28;20180;-62
2023/03/29 01:17:20;;;;;;;1.98;1.30;;;;;;;;;;5039088;28;20594;-63
2023/03/29 01:19:49;;;;;;;1.83;1.25;;;;;;;;;;5041863;28;20194;-62
2023/03/29 01:22:37;;;;;;;1.80;1.20;;;;;;;;;;5042301;28;20224;-62
2023/03/29 01:25:10;;;;;;;1.42;1.15;;;;;;;;;;5040313;28;20229;-62
2023/03/29 01:27:42;;;;;;;2.25;1.40;;;;;;;;;;5050789;28;20171;-62
2023/03/29 01:30:11;;;;;;;1.33;1.05;;;;;;;;;;5041290;28;20225;-62
2023/03/29 01:32:49;;;;;;;2.00;1.13;;;;;;;;;;5039620;28;20199;-62
2023/03/29 01:35:17;;;;;;;1.90;1.20;;;;;;;;;;5021705;28;20179;-62
2023/03/29 01:37:48;;;;;;;1.70;1.55;;;;;;;;;;5040145;28;20201;-62
2023/03/29 01:40:14;;;;;;;1.90;1.33;;;;;;;;;;5039127;28;20190;-62
2023/03/29 01:42:52;;;;;;;1.33;1.00;;;;;;;;;;5033049;28;20647;-61
2023/03/29 01:45:32;;;;;;;2.45;1.20;;;;;;;;;;5042055;28;20262;-61
2023/03/29 01:47:58;;;;;;;1.98;1.17;;;;;;;;;;5041450;28;20179;-62
2023/03/29 01:50:33;;;;;;;1.85;1.10;;;;;;;;;;5044785;28;20175;-62
2023/03/29 01:53:01;;;;;;;1.20;1.10;;;;;;;;;;5043239;28;20582;-62
2023/03/29 01:55:37;;;;;;;1.92;1.10;;;;;;;;;;5029450;28;20560;-62
2023/03/29 01:58:03;;;;;;;1.70;1.20;;;;;;;;;;5049627;28;20550;-62
2023/03/29 02:00:30;;;;;;;1.90;1.20;;;;;;;;;;5047496;28;20444;-62
2023/03/29 02:02:59;;;;;;;2.38;1.30;;;;;;;;;;5044815;28;20661;-62
2023/03/29 02:05:26;;;;;;;1.23;0.85;;;;;;;;;;5037289;28;20211;-62
2023/03/29 02:07:52;;;;;;;1.10;1.00;;;;;;;;;;5044225;28;20182;-63
2023/03/29 02:10:18;;;;;;;1.30;1.20;;;;;;;;;;5037297;28;20204;-62
2023/03/29 02:12:44;;;;;;;1.08;1.00;;;;;;;;;;5024912;28;20184;-63
2023/03/29 02:15:12;;;;;;;1.23;1.00;;;;;;;;;;5031585;28;20556;-62
2023/03/29 02:17:38;;;;;;;1.25;1.15;;;;;;;;;;5042012;28;20184;-62
2023/03/29 02:20:19;;;;;;;1.55;1.20;;;;;;;;;;5033831;28;20461;-62
2023/03/29 02:22:55;;;;;;;1.25;1.10;;;;;;;;;;5033356;28;20747;-63
2023/03/29 02:25:23;;;;;;;1.20;1.10;;;;;;;;;;5043565;28;20273;-62
2023/03/29 02:27:49;;;;;;;1.45;1.13;;;;;;;;;;5037533;28;20709;-62
2023/03/29 02:30:17;;;;;;;1.13;1.00;;;;;;;;;;5040250;28;20274;-62
2023/03/29 02:32:54;;;;;;;1.40;1.15;;;;;;;;;;5045657;28;20488;-63
2023/03/29 02:35:25;;;;;;;1.13;1.00;;;;;;;;;;5037411;28;20187;-63
2023/03/29 02:37:53;;;;;;;1.88;1.38;;;;;;;;;;5032885;28;20196;-63
2023/03/29 02:40:20;;;;;;;1.40;1.00;;;;;;;;;;5038132;28;20266;-63
2023/03/29 02:42:47;;;;;;;1.70;1.00;;;;;;;;;;5033053;28;20533;-63
2023/03/29 02:45:16;;;;;;;1.67;1.20;;;;;;;;;;5026404;28;20183;-63
2023/03/29 02:47:43;;;;;;;1.20;1.08;;;;;;;;;;5026190;28;20237;-63
2023/03/29 02:50:09;;;;;;;1.17;0.93;;;;;;;;;;5033168;28;20172;-62
2023/03/29 02:52:38;;;;;;;1.73;1.00;;;;;;;;;;5041990;28;20558;-63
2023/03/29 02:55:08;;;;;;;1.13;1.00;;;;;;;;;;5035717;28;20550;-62
2023/03/29 02:57:37;;;;;;;1.15;0.90;;;;;;;;;;5041178;28;20571;-62
2023/03/29 03:00:08;;;;;;;1.17;0.90;;;;;;;;;;5034228;28;20183;-63
2023/03/29 03:02:34;;;;;;;2.75;1.08;;;;;;;;;;5041515;28;20473;-63
2023/03/29 03:05:00;;;;;;;1.35;1.08;;;;;;;;;;5032915;28;20180;-63
2023/03/29 03:07:27;;;;;;;1.10;1.00;;;;;;;;;;5033548;28;20274;-63
2023/03/29 03:09:53;;;;;;;0.82;0.80;;;;;;;;;;5031566;28;20215;-63
2023/03/29 03:12:19;;;;;;;1.65;1.20;;;;;;;;;;5041038;28;20596;-63
2023/03/29 03:14:45;;;;;;;1.77;0.90;;;;;;;;;;5029613;28;20203;-63
2023/03/29 03:17:11;;;;;;;1.10;1.00;;;;;;;;;;5024629;28;20207;-63
2023/03/29 03:19:37;;;;;;;1.70;1.02;;;;;;;;;;5033227;28;20580;-63
2023/03/29 03:22:04;;;;;;;1.35;1.10;;;;;;;;;;5033430;28;20615;-63
2023/03/29 03:24:31;;;;;;;1.40;1.10;;;;;;;;;;5029247;28;20307;-67
2023/03/29 03:26:57;;;;;;;1.60;0.90;;;;;;;;;;5037233;28;20181;-72
2023/03/29 03:29:24;;;;;;;1.80;1.02;;;;;;;;;;5041712;28;20198;-49
2023/03/29 03:31:51;;;;;;;2.97;1.08;;;;;;;;;;5039536;28;20180;-53
2023/03/29 03:34:18;;;;;;;1.77;1.13;;;;;;;;;;5033865;28;20541;-53
2023/03/29 03:36:46;;;;;;;2.92;1.65;;;;;;;;;;5035181;28;20270;-53
2023/03/29 03:39:11;;;;;;;2.08;1.48;;;;;;;;;;5040377;28;20195;-53
2023/03/29 03:41:37;;;;;;;4.53;1.27;;;;;;;;;;5041824;28;20180;-53
2023/03/29 03:44:03;;;;;;;5.97;1.60;;;;;;;;;;5034600;28;20592;-53
2023/03/29 03:46:29;;;;;;;8.52;1.73;;;;;;;;;;5033531;28;20184;-57
2023/03/29 03:48:56;;;;;;;10.20;2.22;;;;;;;;;;5036707;28;20188;-58
2023/03/29 03:51:22;;;;;;;9.45;2.88;;;;;;;;;;5036226;28;20250;-59
2023/03/29 03:53:48;;;;;;;10.60;3.13;;;;;;;;;;5035747;28;20271;-58
2023/03/29 03:56:15;;;;;;;14.98;2.78;;;;;;;;;;5041509;28;20273;-59
2023/03/29 03:58:41;;;;;;;9.75;2.92;;;;;;;;;;5043084;28;20262;-59
2023/03/29 04:01:10;;;;;;;9.68;2.63;;;;;;;;;;5044076;28;20338;-58
2023/03/29 04:03:36;;;;;;;8.88;2.70;;;;;;;;;;5036505;28;20200;-58
2023/03/29 04:06:03;;;;;;;10.85;2.67;;;;;;;;;;5035891;28;20454;-57
2023/03/29 04:08:29;;;;;;;12.45;2.95;;;;;;;;;;5035456;28;20187;-57
2023/03/29 04:10:56;;;;;;;12.85;2.80;;;;;;;;;;5048842;28;20187;-57
2023/03/29 04:13:22;;;;;;;8.32;2.92;;;;;;;;;;5038361;28;20196;-58
2023/03/29 04:15:55;;;;;;;6.35;2.28;;;;;;;;;;5035162;28;20183;-57
2023/03/29 04:18:22;;;;;;;7.15;2.38;;;;;;;;;;5037852;28;20190;-57
2023/03/29 04:20:47;;;;;;;8.43;2.75;;;;;;;;;;5039560;28;20191;-57
2023/03/29 04:23:14;;;;;;;6.63;2.80;;;;;;;;;;5034187;28;20593;-57
2023/03/29 04:25:40;;;;;;;8.68;2.95;;;;;;;;;;5048124;28;20183;-57
2023/03/29 04:28:06;;;;;;;7.82;2.40;;;;;;;;;;5037692;28;20187;-57
2023/03/29 04:30:32;;;;;;;7.70;2.60;;;;;;;;;;5046253;28;20219;-57
2023/03/29 04:32:58;;;;;;;7.95;2.80;;;;;;;;;;5035122;28;20194;-58
2023/03/29 04:35:24;;;;;;;8.85;3.08;;;;;;;;;;5040121;28;20184;-57
2023/03/29 04:37:51;;;;;;;8.90;2.85;;;;;;;;;;5041740;28;20222;-57
2023/03/29 04:40:18;;;;;;;8.32;2.28;;;;;;;;;;5056134;28;20183;-57
2023/03/29 04:42:46;;;;;;;5.68;2.42;;;;;;;;;;5036926;28;20290;-57
2023/03/29 04:45:12;;;;;;;6.45;2.50;;;;;;;;;;5046541;28;20179;-57
2023/03/29 04:47:38;;;;;;;11.13;2.45;;;;;;;;;;5027144;28;20183;-57
2023/03/29 04:50:05;;;;;;;6.95;2.72;;;;;;;;;;5040648;28;20308;-56
2023/03/29 04:52:32;;;;;;;7.90;2.83;;;;;;;;;;5035886;28;20234;-56
2023/03/29 04:54:58;;;;;;;6.88;2.60;;;;;;;;;;5038295;28;20212;-56
2023/03/29 04:57:24;;;;;;;5.78;2.63;;;;;;;;;;5032230;28;20270;-56
2023/03/29 04:59:50;;;;;;;6.30;2.60;;;;;;;;;;5047275;28;20320;-57
2023/03/29 05:02:16;;;;;;;8.43;3.63;;;;;;;;;;5038070;28;20239;-56
2023/03/29 05:04:42;;;;;;;7.35;2.53;;;;;;;;;;5038940;28;20884;-56
2023/03/29 05:07:08;;;;;;;5.90;2.17;;;;;;;;;;5035982;28;20188;-57
2023/03/29 05:09:34;;;;;;;8.30;2.47;;;;;;;;;;5033911;28;20293;-57
2023/03/29 05:12:00;;;;;;;6.18;2.10;;;;;;;;;;5052922;28;20178;-57
2023/03/29 05:14:26;;;;;;;7.70;2.03;;;;;;;;;;5038002;28;20183;-57
2023/03/29 05:16:52;;;;;;;5.75;2.15;;;;;;;;;;5031741;28;20253;-57
2023/03/29 05:19:20;;;;;;;7.70;2.15;;;;;;;;;;5041968;28;20441;-57
2023/03/29 05:21:46;;;;;;;4.15;1.50;;;;;;;;;;5038854;28;20199;-57
2023/03/29 05:24:12;;;;;;;5.97;2.15;;;;;;;;;;5045112;28;20206;-57
2023/03/29 05:26:38;;;;;;;4.20;2.00;;;;;;;;;;5028865;28;20173;-57
2023/03/29 05:29:04;;;;;;;5.78;2.05;;;;;;;;;;5039168;28;20184;-57
2023/03/29 05:31:31;;;;;;;6.05;1.85;;;;;;;;;;5039587;28;20188;-58
2023/03/29 05:33:57;;;;;;;5.97;2.38;;;;;;;;;;5038383;28;20283;-57
2023/03/29 05:36:23;;;;;;;3.58;1.65;;;;;;;;;;5032127;28;20519;-57
2023/03/29 05:38:50;;;;;;;4.88;2.00;;;;;;;;;;5035189;28;20190;-58
2023/03/29 05:41:16;;;;;;;4.03;1.80;;;;;;;;;;5033959;28;20249;-58
2023/03/29 05:43:42;;;;;;;3.42;1.73;;;;;;;;;;5046960;28;20306;-57
2023/03/29 05:46:11;;;;;;;3.65;1.70;;;;;;;;;;5044531;28;20195;-58
2023/03/29 05:48:37;;;;;;;5.10;2.00;;;;;;;;;;5029922;28;20186;-57
2023/03/29 05:51:03;;;;;;;12.95;2.30;;;;;;;;;;5037494;28;20184;-57
2023/03/29 05:53:29;;;;;;;4.95;1.40;;;;;;;;;;5032906;28;20200;-57
2023/03/29 05:55:55;;;;;;;4.63;1.98;;;;;;;;;;5032308;28;20216;-57
2023/03/29 05:58:21;;;;;;;3.97;1.88;;;;;;;;;;5024702;28;20518;-57
2023/03/29 06:00:48;;;;;;;3.88;1.55;;;;;;;;;;5036308;28;20266;-57
2023/03/29 06:03:22;;;;;;;2.47;1.40;;;;;;;;;;5034502;28;20257;-58
2023/03/29 06:05:55;;;;;;;3.70;1.70;;;;;;;;;;5031437;28;20254;-57
2023/03/29 06:08:21;;;;;;;3.22;1.52;;;;;;;;;;5024639;28;20183;-57
2023/03/29 06:10:49;;;;;;;5.60;1.75;;;;;;;;;;5045029;28;20229;-57
2023/03/29 06:13:15;;;;;;;3.95;1.48;;;;;;;;;;5037349;28;20187;-58
2023/03/29 06:15:41;;;;;;;2.55;1.55;;;;;;;;;;5046083;28;20222;-58
2023/03/29 06:18:07;;;;;;;3.60;1.80;;;;;;;;;;5030010;28;20206;-57
2023/03/29 06:20:32;;;;;;;3.03;1.40;;;;;;;;;;5032238;28;20194;-57
2023/03/29 06:22:58;;;;;;;2.38;1.67;;;;;;;;;;5044559;28;20215;-58
2023/03/29 06:25:24;;;;;;;3.30;1.45;;;;;;;;;;5043404;28;20188;-57
2023/03/29 06:27:51;;;;;;;3.90;1.73;;;;;;;;;;5034449;28;20227;-58
2023/03/29 06:30:18;;;;;;;1.50;1.20;;;;;;;;;;5030895;28;20547;-58
2023/03/29 06:32:44;;;;;;;4.22;1.50;;;;;;;;;;5036398;28;20185;-57
2023/03/29 06:35:10;;;;;;;2.08;1.40;;;;;;;;;;5041406;28;20175;-57
2023/03/29 06:37:37;;;;;;;2.78;1.40;;;;;;;;;;5031363;28;20851;-57
2023/03/29 06:40:06;;;;;;;2.42;1.40;;;;;;;;;;5046353;28;20287;-57
2023/03/29 06:42:32;;;;;;;2.03;1.48;;;;;;;;;;5037380;28;20203;-57
2023/03/29 06:44:58;;;;;;;3.63;1.70;;;;;;;;;;5038377;28;20491;-58
2023/03/29 06:47:29;;;;;;;2.70;1.25;;;;;;;;;;5039183;28;20525;-57
2023/03/29 06:49:55;;;;;;;2.28;1.40;;;;;;;;;;5033970;28;20218;-57
2023/03/29 06:52:21;;;;;;;2.70;1.40;;;;;;;;;;5032760;28;20568;-57
2023/03/29 06:54:47;;;;;;;1.58;1.13;;;;;;;;;;5028460;28;20181;-57
2023/03/29 06:57:13;;;;;;;2.85;1.35;;;;;;;;;;5025969;28;20243;-57
2023/03/29 06:59:39;;;;;;;4.07;1.60;;;;;;;;;;5033682;28;20458;-58
2023/03/29 07:02:06;;;;;;;3.03;1.40;;;;;;;;;;5028667;28;20203;-57
2023/03/29 07:04:32;;;;;;;1.58;1.10;;;;;;;;;;5030435;28;20600;-57
2023/03/29 07:07:01;;;;;;;1.10;1.00;;;;;;;;;;5033921;28;20203;-57
2023/03/29 07:09:30;;;;;;;3.33;1.23;;;;;;;;;;5039411;28;20190;-57
2023/03/29 07:11:57;;;;;;;1.38;1.20;;;;;;;;;;5052871;28;20193;-57
2023/03/29 07:14:27;;;;;;;1.73;1.40;;;;;;;;;;5037084;28;20345;-57
2023/03/29 07:16:53;;;;;;;1.58;1.00;;;;;;;;;;5035996;28;20171;-58
2023/03/29 07:19:21;;;;;;;2.00;1.30;;;;;;;;;;5041059;28;20267;-57
2023/03/29 07:21:47;;;;;;;3.67;1.48;;;;;;;;;;5030704;28;20234;-57
2023/03/29 07:24:13;;;;;;;2.03;1.38;;;;;;;;;;5041833;28;20220;-57
2023/03/29 07:26:39;;;;;;;2.13;1.25;;;;;;;;;;5044202;28;20179;-57
2023/03/29 07:29:05;;;;;;;1.92;1.42;;;;;;;;;;5035025;28;20184;-57
2023/03/29 07:31:33;;;;;;;2.90;1.40;;;;;;;;;;5046995;28;20259;-57
2023/03/29 07:33:59;;;;;;;2.22;1.25;;;;;;;;;;5033629;28;20184;-57
2023/03/29 07:36:27;;;;;;;1.67;1.10;;;;;;;;;;5035354;28;20230;-57
2023/03/29 07:38:53;;;;;;;1.67;1.30;;;;;;;;;;5036078;28;20183;-57
2023/03/29 07:41:20;;;;;;;3.17;1.70;;;;;;;;;;5056651;28;20604;-57
2023/03/29 07:43:45;;;;;;;2.10;1.33;;;;;;;;;;5040584;28;20573;-57
2023/03/29 07:46:11;;;;;;;2.22;1.30;;;;;;;;;;5036778;28;20250;-57
2023/03/29 07:48:37;;;;;;;1.67;1.38;;;;;;;;;;5036868;28;20171;-57
2023/03/29 07:51:04;;;;;;;1.95;1.58;;;;;;;;;;5037182;28;20183;-57
2023/03/29 07:53:31;;;;;;;2.67;1.20;;;;;;;;;;5037137;28;20538;-57
2023/03/29 07:55:57;;;;;;;1.88;1.30;;;;;;;;;;5036749;28;20175;-57
2023/03/29 07:58:22;;;;;;;1.98;1.30;;;;;;;;;;5037229;28;20184;-57
2023/03/29 08:00:49;;;;;;;2.75;1.50;;;;;;;;;;5036676;28;20351;-57
2023/03/29 08:03:15;;;;;;;1.65;1.13;;;;;;;;;;5036364;28;20198;-58
2023/03/29 08:05:42;;;;;;;1.65;1.35;;;;;;;;;;5044671;28;20195;-58
2023/03/29 08:08:08;;;;;;;1.40;1.30;;;;;;;;;;5037043;28;20219;-57
2023/03/29 08:10:35;;;;;;;1.90;1.40;;;;;;;;;;5042217;28;20186;-57
2023/03/29 08:13:06;;;;;;;1.35;1.25;;;;;;;;;;5034215;28;20218;-57
2023/03/29 08:15:32;;;;;;;1.48;1.20;;;;;;;;;;5034406;28;20630;-57
2023/03/29 08:17:58;;;;;;;2.42;1.65;;;;;;;;;;5040679;28;20276;-57
2023/03/29 08:20:24;;;;;;;1.95;1.33;;;;;;;;;;5039424;28;20308;-57
2023/03/29 08:22:50;;;;;;;1.30;1.20;;;;;;;;;;5039821;28;20215;-57
2023/03/29 08:25:16;;;;;;;1.95;1.45;;;;;;;;;;5047766;28;20175;-57
2023/03/29 08:27:42;;;;;;;1.60;1.33;;;;;;;;;;5039315;28;20175;-57
2023/03/29 08:30:08;;;;;;;1.85;1.40;;;;;;;;;;5042576;28;20237;-57
2023/03/29 08:32:35;;;;;;;1.80;1.67;;;;;;;;;;5035011;28;20448;-57
2023/03/29 08:35:03;;;;;;;1.45;1.20;;;;;;;;;;5033278;28;20258;-57
2023/03/29 08:37:29;;;;;;;2.13;1.58;;;;;;;;;;5050903;28;20249;-57
2023/03/29 08:39:56;;;;;;;1.65;1.10;;;;;;;;;;5047603;28;20189;-57
2023/03/29 08:42:34;;;;;;;1.95;1.20;;;;;;;;;;5049711;28;20176;-57
2023/03/29 08:45:02;;;;;;;1.75;1.58;;;;;;;;;;5048543;28;20573;-57
2023/03/29 08:47:49;;;;;;;1.65;1.30;;;;;;;;;;5032619;28;20184;-57
2023/03/29 08:50:15;;;;;;;1.25;1.10;;;;;;;;;;5032585;28;20203;-57
2023/03/29 08:52:46;;;;;;;1.52;1.35;;;;;;;;;;5041918;28;20179;-57
2023/03/29 08:55:21;;;;;;;2.85;1.30;;;;;;;;;;5032793;28;20167;-57
2023/03/29 08:57:48;;;;;;;2.10;1.50;;;;;;;;;;5034762;28;20192;-57
2023/03/29 09:00:33;;;;;;;1.58;1.30;;;;;;;;;;5045557;28;20171;-58
2023/03/29 09:03:01;;;;;;;1.92;1.30;;;;;;;;;;5033612;28;20211;-58
2023/03/29 09:05:30;;;;;;;1.30;1.20;;;;;;;;;;5043788;28;20180;-58
2023/03/29 09:07:56;;;;;;;1.50;1.20;;;;;;;;;;5044063;28;20180;-57
2023/03/29 09:10:35;;;;;;;1.10;1.00;;;;;;;;;;5041652;28;20168;-57
2023/03/29 09:13:18;;;;;;;2.47;1.35;;;;;;;;;;5035070;28;20493;-58
2023/03/29 09:15:44;;;;;;;1.05;1.00;;;;;;;;;;5035456;28;20191;-58
2023/03/29 09:18:15;;;;;;;1.52;1.15;;;;;;;;;;5034078;28;20188;-58
2023/03/29 09:20:41;;;;;;;1.30;1.20;;;;;;;;;;5035615;28;20575;-57
2023/03/29 09:23:22;;;;;;;1.65;1.13;;;;;;;;;;5034604;28;20231;-57
2023/03/29 09:25:57;;;;;;;1.20;1.00;;;;;;;;;;5043443;28;20179;-58
2023/03/29 09:28:29;;;;;;;1.38;1.20;;;;;;;;;;5035504;28;20179;-57
2023/03/29 09:31:04;;;;;;;1.95;1.10;;;;;;;;;;5039660;28;20500;-58
2023/03/29 09:33:42;;;;;;;1.15;1.00;;;;;;;;;;5034542;28;20172;-58
2023/03/29 09:36:10;;;;;;;1.58;1.20;;;;;;;;;;5034219;28;20183;-58
2023/03/29 09:38:39;;;;;;;1.20;1.10;;;;;;;;;;5035394;28;20194;-58
2023/03/29 09:41:09;;;;;;;1.20;1.10;;;;;;;;;;5041191;28;20281;-57
2023/03/29 09:43:37;;;;;;;1.90;1.00;;;;;;;;;;5029739;28;20203;-58
2023/03/29 09:46:05;;;;;;;0.98;0.93;;;;;;;;;;5031986;28;20565;-58
2023/03/29 09:48:34;;;;;;;2.65;1.33;;;;;;;;;;5029828;28;20182;-58
2023/03/29 09:51:00;;;;;;;1.17;1.08;;;;;;;;;;5032267;28;20263;-58
2023/03/29 09:53:26;;;;;;;1.77;1.40;;;;;;;;;;5034463;28;20267;-58
2023/03/29 09:55:52;;;;;;;1.08;0.90;;;;;;;;;;5034283;28;20601;-58
2023/03/29 09:58:22;;;;;;;1.92;1.00;;;;;;;;;;5031979;28;20184;-58
2023/03/29 10:00:48;;;;;;;1.20;1.10;;;;;;;;;;5031261;28;20183;-58
2023/03/29 10:03:19;;;;;;;1.30;1.00;;;;;;;;;;5034187;28;20279;-58
2023/03/29 10:05:46;;;;;;;1.52;0.98;;;;;;;;;;5034402;28;20192;-58
2023/03/29 10:08:21;;;;;;;1.20;0.90;;;;;;;;;;5032567;28;20194;-58
2023/03/29 10:10:47;;;;;;;1.92;1.05;;;;;;;;;;5036642;28;20187;-58
2023/03/29 10:13:22;;;;;;;1.25;1.15;;;;;;;;;;5026607;28;20547;-57
2023/03/29 10:16:00;;;;;;;1.38;1.05;;;;;;;;;;5042414;28;20224;-58
2023/03/29 10:18:26;;;;;;;1.23;1.10;;;;;;;;;;5042128;28;20562;-58
2023/03/29 10:20:57;;;;;;;1.13;1.00;;;;;;;;;;5028921;28;20273;-58
2023/03/29 10:23:23;;;;;;;1.20;1.10;;;;;;;;;;5031552;28;20257;-58
2023/03/29 10:25:49;;;;;;;1.52;1.10;;;;;;;;;;5029744;28;20188;-58
2023/03/29 10:28:16;;;;;;;1.42;1.30;;;;;;;;;;5028610;28;20190;-59
2023/03/29 10:30:44;;;;;;;0.93;0.93;;;;;;;;;;5033511;28;20212;-58
2023/03/29 10:33:18;;;;;;;2.35;1.20;;;;;;;;;;5039212;28;20191;-58
2023/03/29 10:35:44;;;;;;;1.20;1.10;;;;;;;;;;5028754;28;20513;-58
2023/03/29 10:38:14;;;;;;;2.03;1.10;;;;;;;;;;5039571;28;20570;-58
2023/03/29 10:40:48;;;;;;;1.23;1.13;;;;;;;;;;5025465;28;20238;-58
2023/03/29 10:43:16;;;;;;;1.08;1.00;;;;;;;;;;5034297;28;20207;-58
2023/03/29 10:45:43;;;;;;;1.27;1.13;;;;;;;;;;5024921;28;20254;-59
2023/03/29 10:48:13;;;;;;;1.42;1.27;;;;;;;;;;5040191;28;20188;-58
2023/03/29 10:50:40;;;;;;;4.78;1.35;;;;;;;;;;5025492;28;20175;-59
2023/03/29 10:53:12;;;;;;;2.08;1.08;;;;;;;;;;5039102;28;20184;-58
2023/03/29 10:55:45;;;;;;;1.35;0.98;;;;;;;;;;5040130;28;20185;-58
2023/03/29 10:58:30;;;;;;;2.13;1.40;;;;;;;;;;5040822;28;20183;-59
2023/03/29 11:00:56;;;;;;;2.17;1.02;;;;;;;;;;5033694;28;20223;-58
2023/03/29 11:03:41;;;;;;;3.22;1.10;;;;;;;;;;5033438;28;20207;-58
2023/03/29 11:06:16;;;;;;;1.15;1.05;;;;;;;;;;5044019;28;20210;-58
2023/03/29 11:08:51;;;;;;;1.45;1.00;;;;;;;;;;5035191;28;20171;-58
2023/03/29 11:11:17;;;;;;;1.92;1.38;;;;;;;;;;5034672;28;20182;-58
2023/03/29 11:14:10;;;;;;;2.70;1.13;;;;;;;;;;5042861;28;20191;-58
2023/03/29 11:16:51;;;;;;;1.58;1.15;;;;;;;;;;5043590;28;20179;-58
2023/03/29 11:19:17;;;;;;;1.67;1.25;;;;;;;;;;5029937;28;20191;-58
2023/03/29 11:21:50;;;;;;;1.48;1.20;;;;;;;;;;5036605;28;20271;-58
2023/03/29 11:24:28;;;;;;;1.88;1.00;;;;;;;;;;5030912;28;20212;-58
2023/03/29 11:27:13;;;;;;;2.47;1.30;;;;;;;;;;5035031;28;20266;-58
2023/03/29 11:29:51;;;;;;;2.47;1.08;;;;;;;;;;5035161;28;20231;-58
2023/03/29 11:32:32;;;;;;;2.03;1.20;;;;;;;;;;5025147;28;20178;-58
2023/03/29 11:35:11;;;;;;;1.17;1.08;;;;;;;;;;5032459;28;20188;-58
2023/03/29 11:37:37;;;;;;;1.40;1.08;;;;;;;;;;5028996;28;20282;-59
2023/03/29 11:40:20;;;;;;;1.17;0.90;;;;;;;;;;5040018;28;20262;-58
2023/03/29 11:42:47;;;;;;;1.77;0.95;;;;;;;;;;5033961;28;20176;-58
2023/03/29 11:45:23;;;;;;;1.10;1.00;;;;;;;;;;5028690;28;20446;-58
2023/03/29 11:47:49;;;;;;;1.05;0.95;;;;;;;;;;5035137;28;20271;-58
2023/03/29 11:50:15;;;;;;;1.40;1.20;;;;;;;;;;5043483;28;20172;-58
2023/03/29 11:53:00;;;;;;;1.58;1.10;;;;;;;;;;5035093;28;20438;-57
2023/03/29 11:55:31;;;;;;;2.08;1.00;;;;;;;;;;5038858;28;20595;-58
2023/03/29 11:58:15;;;;;;;1.05;1.00;;;;;;;;;;5042860;28;20198;-58
2023/03/29 12:00:43;;;;;;;2.10;1.20;;;;;;;;;;5043188;28;20184;-58
2023/03/29 12:03:16;;;;;;;2.00;1.23;;;;;;;;;;5039443;28;20313;-58
2023/03/29 12:05:51;;;;;;;1.90;0.90;;;;;;;;;;5028036;28;20198;-58
2023/03/29 12:08:23;;;;;;;0.90;0.90;;;;;;;;;;5033424;28;20187;-59
2023/03/29 12:10:52;;;;;;;2.88;1.10;;;;;;;;;;5046661;28;20198;-58
2023/03/29 12:13:28;;;;;;;1.40;1.05;;;;;;;;;;5037208;28;20183;-58
2023/03/29 12:16:00;;;;;;;1.83;1.00;;;;;;;;;;5030005;28;20219;-58
2023/03/29 12:18:28;;;;;;;1.50;0.90;;;;;;;;;;5036050;28;20186;-58
2023/03/29 12:20:58;;;;;;;2.33;1.02;;;;;;;;;;5033650;28;20184;-59
2023/03/29 12:23:24;;;;;;;1.33;1.05;;;;;;;;;;5030893;28;20286;-58
2023/03/29 12:26:03;;;;;;;0.77;0.75;;;;;;;;;;5026908;28;20347;-58
2023/03/29 12:28:38;;;;;;;1.38;1.00;;;;;;;;;;5038125;28;20203;-58
2023/03/29 12:31:13;;;;;;;1.67;0.82;;;;;;;;;;5041789;28;20176;-58
2023/03/29 12:33:47;;;;;;;0.98;0.93;;;;;;;;;;4971935;28;20310;-58
2023/03/29 12:36:19;;;;;;;2.78;0.93;;;;;;;;;;4992148;28;20590;-58
2023/03/29 12:38:46;;;;;;;1.33;1.00;;;;;;;;;;4986735;28;20197;-58
2023/03/29 12:41:17;;;;;;;1.77;1.00;;;;;;;;;;4995780;28;20187;-59
2023/03/29 12:43:44;;;;;;;1.13;1.02;;;;;;;;;;4991625;28;20595;-58
2023/03/29 12:46:14;;;;;;;1.85;1.20;;;;;;;;;;4992068;28;20548;-58
2023/03/29 12:48:41;;;;;;;1.00;0.90;;;;;;;;;;4994223;28;20570;-58
2023/03/29 12:51:08;;;;;;;1.33;1.00;;;;;;;;;;4992030;28;20182;-58
2023/03/29 12:53:54;;;;;;;1.48;1.00;;;;;;;;;;4993111;28;20188;-58
2023/03/29 12:56:35;;;;;;;1.55;1.05;;;;;;;;;;4989424;28;20216;-58
2023/03/29 12:59:06;;;;;;;1.75;1.10;;;;;;;;;;4993040;28;20185;-58
2023/03/29 13:01:41;;;;;;;1.75;1.00;;;;;;;;;;4990291;28;20182;-58
2023/03/29 13:04:15;;;;;;;0.82;0.80;;;;;;;;;;4995143;28;20209;-57
2023/03/29 13:06:47;;;;;;;1.23;1.10;;;;;;;;;;4993678;28;20192;-58
2023/03/29 13:09:22;;;;;;;1.15;1.00;;;;;;;;;;4995543;28;20618;-58
2023/03/29 13:11:57;;;;;;;0.98;0.90;;;;;;;;;;4996376;28;20184;-58
2023/03/29 13:14:25;;;;;;;0.80;0.80;;;;;;;;;;4995433;28;20460;-58
2023/03/29 13:16:54;;;;;;;0.73;0.73;;;;;;;;;;4994469;28;20557;-59
2023/03/29 13:19:32;;;;;;;1.27;0.82;;;;;;;;;;4995753;28;20181;-59
2023/03/29 13:22:01;;;;;;;1.02;0.93;;;;;;;;;;4995911;28;20200;-58
2023/03/29 13:24:45;;;;;;;0.80;0.80;;;;;;;;;;4993809;28;20267;-58
2023/03/29 13:27:24;;;;;;;2.65;0.80;;;;;;;;;;4992927;28;20256;-58
2023/03/29 13:30:08;;;;;;;0.77;0.77;;;;;;;;;;4998471;28;20819;-58
2023/03/29 13:32:50;;;;;;;1.48;1.10;;;;;;;;;;4990503;28;20223;-49
2023/03/29 13:35:34;;;;;;;1.52;1.20;;;;;;;;;;4985599;28;20270;-50
2023/03/29 13:38:17;;;;;;;1.52;0.93;;;;;;;;;;4994025;28;20227;-50
2023/03/29 13:41:03;;;;;;;5.43;0.95;;;;;;;;;;4994605;28;20177;-51
2023/03/29 13:43:33;;;;;;;2.50;0.98;;;;;;;;;;4993322;28;20216;-51
2023/03/29 13:45:59;;;;;;;5.30;1.00;;;;;;;;;;4986218;28;20185;-50
2023/03/29 13:48:26;;;;;;;3.13;1.20;;;;;;;;;;4991841;28;20188;-50
2023/03/29 13:50:54;;;;;;;4.82;1.10;;;;;;;;;;4992701;28;20273;-49
2023/03/29 13:53:29;;;;;;;7.53;1.10;;;;;;;;;;4993785;28;20228;-50
2023/03/29 13:55:57;;;;;;;6.60;1.27;;;;;;;;;;4985169;28;20580;-50
2023/03/29 13:58:44;;;;;;;4.35;0.85;;;;;;;;;;4989925;28;20212;-50
2023/03/29 14:01:16;;;;;;;6.22;1.40;;;;;;;;;;4990943;28;20189;-50
2023/03/29 14:03:46;;;;;;;3.17;1.00;;;;;;;;;;4991623;28;20208;-50
2023/03/29 14:06:14;;;;;;;1.45;0.88;;;;;;;;;;4990174;28;20177;-50
2023/03/29 14:08:41;;;;;;;3.40;1.13;;;;;;;;;;4992094;28;20173;-50
2023/03/29 14:11:12;;;;;;;2.83;1.30;;;;;;;;;;4993260;28;20578;-50
2023/03/29 14:13:38;;;;;;;3.33;1.25;;;;;;;;;;4992388;28;20193;-50
2023/03/29 14:16:09;;;;;;;3.17;1.00;;;;;;;;;;4992917;28;20204;-50
2023/03/29 14:18:39;;;;;;;1.73;1.00;;;;;;;;;;4993986;28;20181;-50
2023/03/29 14:21:06;;;;;;;1.75;1.00;;;;;;;;;;4994430;28;20194;-50
2023/03/29 14:23:32;;;;;;;3.28;1.10;;;;;;;;;;4992784;28;20602;-50
2023/03/29 14:26:06;;;;;;;4.28;1.00;;;;;;;;;;4987254;28;20463;-50
2023/03/29 14:28:32;;;;;;;8.75;1.30;;;;;;;;;;4991132;28;20188;-50
2023/03/29 14:30:58;;;;;;;6.57;1.15;;;;;;;;;;4994219;28;20185;-49
2023/03/29 14:33:28;;;;;;;7.78;1.92;;;;;;;;;;4993275;28;20184;-50
2023/03/29 14:35:55;;;;;;;5.57;1.15;;;;;;;;;;4985585;28;20186;-50
2023/03/29 14:38:22;;;;;;;4.07;0.90;;;;;;;;;;4992080;28;20256;-50
2023/03/29 14:40:48;;;;;;;3.80;1.30;;;;;;;;;;4995098;28;20177;-50
2023/03/29 14:43:18;;;;;;;5.88;1.63;;;;;;;;;;4992818;28;20263;-50
2023/03/29 14:45:44;;;;;;;8.20;1.23;;;;;;;;;;4985348;28;20256;-50
2023/03/29 14:48:11;;;;;;;7.40;1.27;;;;;;;;;;4991849;28;20484;-50
2023/03/29 14:50:37;;;;;;;2.17;1.40;;;;;;;;;;4992400;28;20184;-50
2023/03/29 14:53:04;;;;;;;2.63;1.10;;;;;;;;;;4993029;28;20663;-50
2023/03/29 14:55:30;;;;;;;6.22;1.45;;;;;;;;;;4990021;28;20224;-49